Anza Borrego Desert State Park, California Weather observations

Data are for 10 minute period ending at time listed.
 Day   Time   Solar   Ave.   Ave.  Ave.  Vector  Max.   Baro.   Total    
  of    of     Rad.   Air    Rel.  Wind   Wind   Wind  Press.  Precip.   
Year   Day            Temp.  Hum.  Speed  Dir.   Gust                    
2026   (PST)  Kw/m2    F      %     mph   deg.    mph    mb.     in.     
-------------------------------------------------------------------------
 128   10:20   0.94   99.0     7    4.6    47     7.5   981.9    0.00 
 128   10:30   0.95   98.6     7    4.2    29     8.4   981.8    0.00 
 128   10:40   0.97   99.4     7    4.3   129     9.2   981.7    0.00 
 128   10:50   0.98  100.0     7    5.6    63    10.7   981.6    0.00 
 128   11:00   0.98   99.7     7    2.7   114     5.8   981.5    0.00 
 128   11:10   0.99  100.3     6    5.1   316    10.7   981.5    0.00 
 128   11:20   1.00  101.2     6    5.9   317    12.2   981.4    0.00 
 128   11:30   1.00  100.1     6    8.8   255    14.4   981.4    0.00 
 128   11:40   1.01  100.8     6    9.4   257    15.7   981.2    0.00 
 128   11:50   1.01  100.4     7    7.6   285    19.4   981.1    0.00 
 128   12:00   1.00  100.7     7    8.3   260    12.9   981.1    0.00 
 128   12:10   1.00  101.2     7    9.8   290    20.5   981.0    0.00 
 128   12:20   1.00  100.8     6    9.2   294    16.3   980.9    0.00 
 128   12:30   0.98  100.5     6    9.5   285    21.1   980.8    0.00 
 128   12:40   0.98  100.8     6    9.9   285    18.9   980.7    0.00 
 128   12:50   0.98  101.0     6   12.6   270    22.2   980.7    0.00 
 128   13:00   0.97  101.1     6   14.7   289    24.6   980.6    0.00 
 128   13:10   0.96  101.3     6   12.8   263    24.6   980.6    0.00 
 128   13:20   0.94  100.9     6   13.3   266    21.6   980.5    0.00 
 128   13:30   0.93  101.0     6   15.2   272    23.0   980.4    0.00 
 128   13:40   0.91  100.7     6   16.2   273    25.4   980.3    0.00 
 128   13:50   0.89  100.2     6   17.4   274    24.9   980.2    0.00 
 128   14:00   0.87  100.3     5   16.4   269    27.8   980.1    0.00 
 128   14:10   0.85  100.5     5   16.5   260    26.3   979.9    0.00 
 128   14:20   0.82  100.5     6   15.8   267    25.4   979.9    0.00 
 128   14:30   0.80   99.8     6   18.0   274    25.9   979.7    0.00 
 128   14:40   0.78  100.0     6   16.9   272    24.9   979.6    0.00 
 128   14:50   0.75   99.5     6   18.1   271    24.4   979.6    0.00 
 128   15:00   0.72   99.2     7   18.5   275    28.9   979.5    0.00 
 128   15:10   0.69   98.2     8   21.8   279    28.7   979.4    0.00 
 128   15:20   0.66   97.9     7   21.8   279    28.4   979.4    0.00 
 128   15:30   0.63   97.6     7   20.1   277    30.2   979.3    0.00 
 128   15:40   0.60   98.9     6   15.1   267    25.9   979.2    0.00 
 128   15:50   0.56   98.4     6   16.3   265    24.9   979.3    0.00 
 128   16:00   0.53   98.2     6   15.3   268    23.0   979.3    0.00 
 128   16:10   0.49   99.0     5    9.2   268    17.5   979.3    0.00 
 128   16:20   0.46   99.0     5    8.4   300    17.2   979.3    0.00 
 128   16:30   0.42   98.2     5    5.0   308    15.1   979.2    0.00 
 128   16:40   0.38   97.9     5    6.3   324    11.6   979.2    0.00 
 128   16:50   0.34   97.6     5    6.9   281    14.5   979.2    0.00 
 128   17:00   0.31   96.7     6    8.2   326    16.9   979.1    0.00 
 128   17:10   0.27   96.2     6    4.9   337    12.9   979.1    0.00 
 128   17:20   0.23   95.7     6    7.2   320    15.8   979.2    0.00 
 128   17:30   0.05   94.8     6    5.3   314    14.0   979.2    0.00 
 128   17:40   0.02   93.0     7    6.8   316    14.5   979.4    0.00 
 128   17:50   0.02   92.4     7    4.9   316    12.1   979.3    0.00 
 128   18:00   0.02   91.8     8    8.0   311    15.5   979.3    0.00 
 128   18:10   0.01   91.3     8    8.4   317    14.8   979.4    0.00 
 128   18:20   0.01   91.3     7    7.8   315    11.8   979.4    0.00 
 128   18:30   0.01   91.0     7    8.8   313    13.7   979.5    0.00 
 128   18:40   0.00   90.4     8    8.3   305    12.6   979.6    0.00 
 128   18:50   0.00   90.1     8    5.6   308    12.4   979.6    0.00 
 128   19:00   0.00   89.6     7    7.3   293    13.7   979.7    0.00 
 128   19:10   0.00   89.2     7    2.4   255     6.7   979.8    0.00 
 128   19:20   0.00   87.8     7    0.9   256     3.1   980.0    0.00 
 128   19:30   0.00   86.0     7    2.4   135     4.2   980.0    0.00 
 128   19:40   0.00   85.0     7    2.3   122     4.1   980.1    0.00 
 128   19:50   0.00   82.9     8    1.5   223     3.7   980.1    0.00 
 128   20:00   0.00   82.9     8    0.6   190     2.3   980.1    0.00 
 128   20:10   0.00   79.7     9    1.6   202     3.2   980.3    0.00 
 128   20:20   0.00   79.3     9    2.8   215     5.2   980.4    0.00 
 128   20:30   0.00   79.6     9    1.8   216     3.6   980.5    0.00 
 128   20:40   0.00   78.5     9    4.4   233     5.4   980.6    0.00 
 128   20:50   0.00   77.4     9    3.8   254     5.0   980.6    0.00 
 128   21:00   0.00   76.4    10    3.7   235     4.8   980.7    0.00 
 128   21:10   0.00   76.7    10    2.9   200     4.8   980.7    0.00 
 128   21:20   0.00   77.5    10    3.2   177     5.3   980.8    0.00 
 128   21:30   0.00   77.1    11    4.6   190     5.6   980.8    0.00 
 128   21:40   0.00   74.6    11    5.8   212     7.7   980.7    0.00 
 128   21:50   0.00   77.4    11    5.4   221     8.0   980.7    0.00 
 128   22:00   0.00   76.7    11    5.5   245     6.7   980.6    0.00 
 128   22:10   0.00   75.9    11    6.5   214     7.7   980.5    0.00 
 128   22:20   0.00   76.4    13    6.0   190     7.9   980.4    0.00 
 128   22:30   0.00   76.2    13    4.9   221     6.5   980.4    0.00 
 128   22:40   0.00   75.1    11    4.7   244     6.5   980.3    0.00 
 128   22:50   0.00   75.8    11    3.4   212     6.6   980.3    0.00 
 128   23:00   0.00   75.5    13    3.8   216     6.5   980.3    0.00 
 128   23:10   0.00   76.7    19    4.4   195     6.1   980.3    0.00 
 128   23:20   0.00   73.3    15    4.8   210     6.5   980.2    0.00 
 128   23:30   0.00   73.4    14    5.5   223     7.6   980.1    0.00 
 128   23:40   0.00   73.2    12    4.8   239     6.6   980.0    0.00 
 128   23:50   0.00   72.5    12    4.0   240     5.6   980.0    0.00 
 129    0:00   0.00   72.7    11    5.2   219     6.4   980.0    0.00 
 129    0:10   0.00   72.7    11    5.1   217     5.9   979.9    0.00 
 129    0:20   0.00   72.3    10    5.6   228     6.7   979.8    0.00 
 129    0:30   0.00   71.7    11    5.4   197     6.7   979.8    0.00 
 129    0:40   0.00   72.3    11    6.2   206     7.0   979.7    0.00 
 129    0:50   0.00   71.4    10    5.3   227     6.4   979.7    0.00 
 129    1:00   0.00   71.3     9    5.4   256     6.9   979.6    0.00 
 129    1:10   0.00   70.5    10    2.6   278     5.7   979.6    0.00 
 129    1:20   0.00   71.8    14    2.7   328     4.0   979.6    0.00 
 129    1:30   0.00   70.7    15    2.8   307     4.0   979.5    0.00 
 129    1:40   0.00   71.4    14    2.8   232     4.2   979.5    0.00 
 129    1:50   0.00   69.8    13    4.6   212     6.2   979.4    0.00 
 129    2:00   0.00   70.5    11    4.0   231     4.8   979.3    0.00 
 129    2:10   0.00   69.1    10    4.5   229     5.3   979.2    0.00 
 129    2:20   0.00   68.4    10    5.1   239     6.4   979.1    0.00 
 129    2:30   0.00   71.1     9    5.4   208     6.4   979.1    0.00 
 129    2:40   0.00   71.5     9    1.5   186     3.9   979.2    0.00 
 129    2:50   0.00   70.2    12    3.0   253     4.7   979.2    0.00 
 129    3:00   0.00   69.9    15    4.1   225     6.1   979.1    0.00 
 129    3:10   0.00   69.2    13    4.1   238     5.4   979.1    0.00 
 129    3:20   0.00   68.8    12    4.2   248     7.2   979.1    0.00 
 129    3:30   0.00   68.2    10    4.8   221     6.4   979.1    0.00 
 129    3:40   0.00   68.9    10    4.2   226     5.3   979.1    0.00 
 129    3:50   0.00   69.1    10    4.3   219     5.6   979.1    0.00 
 129    4:00   0.00   68.0    11    4.2   218     5.6   979.1    0.00 
 129    4:10   0.00   68.3    10    5.1   245     6.7   979.1    0.00 
 129    4:20   0.00   68.6     9    4.7   238     6.1   979.1    0.00 
 129    4:30   0.00   69.8     9    4.5   226     5.3   979.2    0.00 
 129    4:40   0.00   67.6    10    5.2   249     6.8   979.3    0.00 
 129    4:50   0.00   67.8    10    6.1   257     6.9   979.4    0.00 
 129    5:00   0.01   68.6     9    6.0   256     6.9   979.5    0.00 
 129    5:10   0.02   69.3     8    5.3   246     7.4   979.5    0.00 
 129    5:20   0.04   70.5     8    4.9   245     7.0   979.6    0.00 
 129    5:30   0.07   71.7     7    3.7   235     5.0   979.7    0.00 
 129    5:40   0.11   73.4     8    3.1   220     4.2   979.9    0.00 
 129    5:50   0.15   75.9     8    3.1   255     4.5   980.0    0.00 
 129    6:00   0.18   78.4     7    3.9   241     4.9   980.0    0.00 
 129    6:10   0.22   80.6     8    3.1   234     3.9   980.1    0.00 
 129    6:20   0.25   82.8     8    2.4   216     3.0   980.2    0.00 
 129    6:30   0.29   84.9     9    1.5   137     3.0   980.3    0.00 
 129    6:40   0.33   84.7     9    1.4   128     2.8   980.4    0.00 
 129    6:50   0.37   85.8     9    1.7   156     3.4   980.5    0.00 
 129    7:00   0.41   86.3     9    2.6   158     4.4   980.5    0.00 
 129    7:10   0.44   87.1     8    2.2   156     3.7   980.5    0.00 
 129    7:20   0.48   87.2     9    2.7    80     4.5   980.7    0.00 
 129    7:30   0.51   87.7     9    1.8    80     3.1   980.7    0.00 
 129    7:40   0.55   88.4     8    1.4   132     3.7   980.7    0.00 
 129    7:50   0.58   89.6     7    1.7   165     3.9   980.7    0.00 
 129    8:00   0.62   89.7     7    2.0   156     4.3   980.7    0.00 
 129    8:10   0.65   90.5     7    1.8   102     3.4   980.7    0.00 
 129    8:20   0.68   91.1     7    1.6    84     4.8   980.8    0.00 
 129    8:30   0.71   91.3     6    3.0    63     5.6   980.8    0.00 
 129    8:40   0.74   90.9     6    1.8    82     4.3   980.8    0.00 
 129    8:50   0.77   91.8     6    2.8    64     5.2   980.8    0.00 
 129    9:00   0.80   92.1     6    3.8    77     6.1   980.8    0.00 
 129    9:10   0.83   92.1     6    4.0    73     7.1   980.8    0.00 
 129    9:20   0.85   92.3     5    4.7    79     8.5   980.9    0.00 
 129    9:30   0.87   93.1     5    3.4    77     7.5   980.9    0.00 
 129    9:40   0.90   93.4     5    2.3    93     6.9   980.9    0.00 
 129    9:50   0.91   94.4     5    2.8   117     5.6   980.9    0.00 
 129   10:00   0.93   94.8     4    2.6    81     5.8   980.9    0.00 
 129   10:10   0.95   95.2     4    2.7    52     5.4   980.9    0.00 

Return to Anza Borrego Desert State Park graphs page.


Western Regional Climate Center,wrcc@dri.edu